TSC724 LFPG-CYUL
Flight info
| Callsign | TSC724 |
|---|---|
| Flight time | N/A |
| Altitude | 40000 |
| Route | ELCOB UT300 SENLO UN502 JSY DCT LIZAD DCT ARKIL DCT AMDEP DCT TOBOR/M080F390 DCT 53N020W 53N030W 5230N04000W 50N050W DCT ELSIR/N0453F400 N412A MIILS DCT KEBIG ROCKT3 |
| Aircraft | A332/H-SDE3GHIJ2J3J5M1RVWXY/LB2D1 |
Departure
| Time | 2026-05-06 20:37 |
|---|---|
| Airport | Charles de Gaulle International Airport (LFPG) |
Arrival
| Time | N/A |
|---|---|
| Airport | Montreal / Pierre Elliott Trudeau International Airport (CYUL) |
| Time | Latitude | Longitude | Altitude | Speed | Heading |
|---|---|---|---|---|---|
| 2026-05-06 20:20 | 49.00133 | 2.58641 | 364 ft | 0 kts | 281° |
| 2026-05-06 20:30 | 49.00132 | 2.58649 | 365 ft | 2 kts | 280° |
| 2026-05-06 20:30 | 49.00128 | 2.58686 | 360 ft | 2 kts | 279° |
| 2026-05-06 20:30 | 49.00126 | 2.58706 | 360 ft | 2 kts | 255° |
| 2026-05-06 20:31 | 49.00131 | 2.58725 | 362 ft | 3 kts | 231° |
| 2026-05-06 20:31 | 49.00146 | 2.58754 | 359 ft | 3 kts | 230° |
| 2026-05-06 20:31 | 49.00153 | 2.58766 | 367 ft | 0 kts | 187° |
| 2026-05-06 20:32 | 49.00150 | 2.58766 | 367 ft | 1 kts | 185° |
| 2026-05-06 20:32 | 49.00120 | 2.58767 | 361 ft | 6 kts | 178° |
| 2026-05-06 20:33 | 49.00075 | 2.58764 | 358 ft | 7 kts | 189° |
| 2026-05-06 20:33 | 49.00022 | 2.58746 | 364 ft | 8 kts | 193° |
| 2026-05-06 20:33 | 48.99967 | 2.58758 | 367 ft | 8 kts | 141° |
| 2026-05-06 20:33 | 48.99953 | 2.58887 | 362 ft | 14 kts | 86° |
| 2026-05-06 20:34 | 48.99960 | 2.59043 | 364 ft | 15 kts | 86° |
| 2026-05-06 20:34 | 48.99968 | 2.59210 | 358 ft | 16 kts | 86° |
| 2026-05-06 20:34 | 48.99979 | 2.59383 | 361 ft | 17 kts | 86° |
| 2026-05-06 20:34 | 48.99987 | 2.59565 | 366 ft | 18 kts | 85° |
| 2026-05-06 20:35 | 48.99998 | 2.59760 | 360 ft | 19 kts | 85° |
| 2026-05-06 20:35 | 49.00009 | 2.59964 | 362 ft | 20 kts | 85° |
| 2026-05-06 20:35 | 49.00021 | 2.60173 | 362 ft | 20 kts | 85° |
| 2026-05-06 20:35 | 49.00019 | 2.60373 | 362 ft | 16 kts | 122° |
| 2026-05-06 20:36 | 48.99962 | 2.60395 | 361 ft | 13 kts | 199° |
| 2026-05-06 20:36 | 48.99914 | 2.60308 | 367 ft | 12 kts | 232° |
| 2026-05-06 20:36 | 48.99838 | 2.60148 | 338 ft | 20 kts | 244° |
| 2026-05-06 20:36 | 48.99818 | 2.59928 | 362 ft | 30 kts | 265° |
| 2026-05-06 20:37 | 48.99784 | 2.59226 | 357 ft | 106 kts | 265° |
| 2026-05-06 20:37 | 48.99695 | 2.57731 | 428 ft | 172 kts | 265° |
| 2026-05-06 20:37 | 48.99581 | 2.55742 | 1142 ft | 204 kts | 267° |
| 2026-05-06 20:37 | 48.99469 | 2.53523 | 2042 ft | 217 kts | 268° |
| 2026-05-06 20:38 | 48.99348 | 2.51173 | 2497 ft | 232 kts | 268° |
| 2026-05-06 20:38 | 48.99216 | 2.48662 | 3014 ft | 242 kts | 267° |
| 2026-05-06 20:38 | 48.99075 | 2.46048 | 3582 ft | 253 kts | 268° |
| 2026-05-06 20:38 | 48.98928 | 2.43378 | 4306 ft | 258 kts | 266° |
| 2026-05-06 20:39 | 48.98775 | 2.40628 | 5126 ft | 262 kts | 265° |
| 2026-05-06 20:39 | 48.98620 | 2.37845 | 5945 ft | 266 kts | 265° |
| 2026-05-06 20:39 | 48.98462 | 2.35017 | 6808 ft | 269 kts | 265° |
| 2026-05-06 20:39 | 48.98303 | 2.32173 | 7620 ft | 272 kts | 265° |
| 2026-05-06 20:40 | 48.98142 | 2.29290 | 8483 ft | 275 kts | 266° |
| 2026-05-06 20:40 | 48.97979 | 2.26380 | 9337 ft | 279 kts | 266° |
| 2026-05-06 20:40 | 48.97812 | 2.23410 | 10123 ft | 284 kts | 266° |
| 2026-05-06 20:40 | 48.97640 | 2.20370 | 10524 ft | 302 kts | 266° |
| 2026-05-06 20:41 | 48.97452 | 2.17038 | 10830 ft | 322 kts | 265° |
| 2026-05-06 20:41 | 48.97256 | 2.13607 | 11338 ft | 334 kts | 266° |
| 2026-05-06 20:41 | 48.97049 | 2.10011 | 12019 ft | 340 kts | 266° |
| 2026-05-06 20:41 | 48.96842 | 2.06442 | 12740 ft | 345 kts | 266° |
| 2026-05-06 20:42 | 48.96630 | 2.02793 | 13463 ft | 349 kts | 266° |
| 2026-05-06 20:42 | 48.96273 | 1.96683 | 14624 ft | 354 kts | 266° |
| 2026-05-06 20:42 | 48.95934 | 1.89179 | 16071 ft | 357 kts | 274° |
| 2026-05-06 20:42 | 48.96672 | 1.81656 | 17478 ft | 361 kts | 281° |
| 2026-05-06 20:43 | 48.97526 | 1.74075 | 18721 ft | 367 kts | 281° |
| 2026-05-06 20:43 | 48.98388 | 1.66310 | 19823 ft | 375 kts | 281° |
| 2026-05-06 20:43 | 48.99253 | 1.58446 | 20922 ft | 381 kts | 280° |
| 2026-05-06 20:43 | 49.00131 | 1.50404 | 21998 ft | 387 kts | 280° |
| 2026-05-06 20:44 | 49.01015 | 1.42242 | 23024 ft | 393 kts | 279° |
| 2026-05-06 20:44 | 49.01906 | 1.33968 | 23962 ft | 399 kts | 279° |
| 2026-05-06 20:44 | 49.02801 | 1.25598 | 24819 ft | 404 kts | 279° |
| 2026-05-06 20:44 | 49.03538 | 1.11830 | 26143 ft | 411 kts | 272° |
| 2026-05-06 20:45 | 49.04216 | 0.87636 | 28436 ft | 419 kts | 273° |
| 2026-05-06 20:45 | 49.05183 | 0.51774 | 31362 ft | 431 kts | 273° |
| 2026-05-06 20:45 | 49.06104 | 0.14322 | 34013 ft | 438 kts | 273° |
| 2026-05-06 20:45 | 49.06830 | -0.18129 | 36024 ft | 437 kts | 272° |
| 2026-05-06 20:46 | 49.07067 | -0.32205 | 36511 ft | 443 kts | 272° |
| 2026-05-06 20:46 | 49.07429 | -0.53002 | 37608 ft | 444 kts | 271° |
| 2026-05-06 20:46 | 49.07730 | -0.71769 | 38470 ft | 445 kts | 271° |
| 2026-05-06 20:46 | 49.08004 | -0.90769 | 39153 ft | 446 kts | 271° |
| 2026-05-06 20:47 | 49.08150 | -1.01941 | 39493 ft | 447 kts | 271° |
| 2026-05-06 20:47 | 49.08209 | -1.06694 | 39632 ft | 447 kts | 271° |
| 2026-05-06 20:47 | 49.08266 | -1.11446 | 39759 ft | 448 kts | 271° |
| 2026-05-06 20:47 | 49.08413 | -1.16194 | 39890 ft | 449 kts | 276° |
| 2026-05-06 20:48 | 49.09050 | -1.21877 | 40007 ft | 451 kts | 281° |
| 2026-05-06 20:48 | 49.12536 | -1.43768 | 40008 ft | 462 kts | 283° |
| 2026-05-06 20:48 | 49.21018 | -1.89710 | 31092 ft | 423 kts | 295° |
| 2026-05-06 20:48 | 49.23029 | -1.93674 | 15273 ft | 200 kts | 352° |
| 2026-05-06 20:49 | 49.23654 | -1.94127 | 6443 ft | 17 kts | 243° |